createdAt,value
2023-04-18T00:02:07.216Z,96565.09
2023-04-18T00:04:35.676Z,96565.31
2023-04-18T00:07:04.132Z,96569.13
2023-04-18T00:09:32.435Z,96561.28
2023-04-18T00:12:01.630Z,96567.91
2023-04-18T00:14:30.169Z,96561.69
2023-04-18T00:16:58.522Z,96556.31
2023-04-18T00:19:28.281Z,96550.66
2023-04-18T00:21:58.080Z,96556.38
2023-04-18T00:24:27.025Z,96553.63
2023-04-18T00:26:55.513Z,96546.41
2023-04-18T00:29:23.789Z,96553.44
2023-04-18T00:31:52.073Z,96549.22
2023-04-18T00:34:20.437Z,96554.75
2023-04-18T00:36:50.062Z,96545.47
2023-04-18T00:39:18.295Z,96547.09
2023-04-18T00:41:46.650Z,96543.25
2023-04-18T00:44:15.067Z,96538.56
2023-04-18T00:46:43.382Z,96547.38
2023-04-18T00:49:12.971Z,96543.47
2023-04-18T00:51:41.374Z,96549.94
2023-04-18T00:54:13.454Z,96553.66
2023-04-18T00:56:42.145Z,96560.94
2023-04-18T00:59:10.785Z,96550.66
2023-04-18T01:01:40.313Z,96559.03
2023-04-18T01:04:09.429Z,96559.63
2023-04-18T01:06:38.000Z,96557.72
2023-04-18T01:09:06.663Z,96558.91
2023-04-18T01:11:36.380Z,96553.25
2023-04-18T01:14:05.929Z,96545.78
2023-04-18T01:16:34.827Z,96556.75
2023-04-18T01:19:03.729Z,96553.25
2023-04-18T01:21:33.930Z,96544.56
2023-04-18T01:24:09.293Z,96548.22
2023-04-18T01:26:37.590Z,96548.97
2023-04-18T01:29:06.313Z,96546.31
2023-04-18T01:31:36.079Z,96546.47
2023-04-18T01:34:04.431Z,96538.06
2023-04-18T01:36:33.158Z,96541.63
2023-04-18T01:39:01.833Z,96540.78
2023-04-18T01:41:32.880Z,96535.91
2023-04-18T01:44:01.817Z,96539.47
2023-04-18T01:46:30.168Z,96541.16
2023-04-18T01:49:00.768Z,96539.91
2023-04-18T01:51:28.930Z,96538.09
2023-04-18T01:53:57.141Z,96529.81
2023-04-18T01:56:25.370Z,96537.94
2023-04-18T01:58:54.957Z,96538.88
2023-04-18T02:01:23.307Z,96532.09
2023-04-18T02:03:51.783Z,96532.59
2023-04-18T02:06:20.248Z,96531.34
2023-04-18T02:08:48.539Z,96526.47
2023-04-18T02:11:16.822Z,96537.78
2023-04-18T02:13:45.054Z,96537.75
2023-04-18T02:16:14.866Z,96545.13
2023-04-18T02:18:44.778Z,96531.59
2023-04-18T02:21:13.230Z,96532.41
2023-04-18T02:23:41.608Z,96530.53
2023-04-18T02:26:09.889Z,96539.13
2023-04-18T02:28:39.193Z,96539.69
2023-04-18T02:31:14.481Z,96541.13
2023-04-18T02:33:45.395Z,96538.91
2023-04-18T02:36:13.804Z,96542.94
2023-04-18T02:38:42.173Z,96549.38
2023-04-18T02:41:14.998Z,96551.91
2023-04-18T02:43:43.744Z,96549.91
2023-04-18T02:46:12.030Z,96552.94
2023-04-18T02:48:40.342Z,96547.72
2023-04-18T02:51:10.840Z,96548.34
2023-04-18T02:53:39.120Z,96555.66
2023-04-18T02:56:08.485Z,96563.56
2023-04-18T02:58:37.000Z,96560.91
2023-04-18T03:01:05.321Z,96556.84
2023-04-18T03:03:33.634Z,96552.09
2023-04-18T03:06:01.940Z,96551.88
2023-04-18T03:08:31.579Z,96535.44
2023-04-18T03:11:00.035Z,96543.69
2023-04-18T03:13:28.277Z,96539.16
2023-04-18T03:15:56.503Z,96541.75
2023-04-18T03:18:24.814Z,96541.91
2023-04-18T03:20:53.220Z,96540.19
2023-04-18T03:23:21.943Z,96538.31
2023-04-18T03:25:51.564Z,96538.19
2023-04-18T03:28:19.890Z,96536.63
2023-04-18T03:30:48.215Z,96539.38
2023-04-18T03:33:17.134Z,96551.34
2023-04-18T03:35:45.465Z,96539.59
2023-04-18T03:38:13.669Z,96537.78
2023-04-18T03:40:44.541Z,96536.25
2023-04-18T03:43:14.673Z,96543.41
2023-04-18T03:45:44.104Z,96543.81
2023-04-18T03:48:12.426Z,96533.41
2023-04-18T03:50:40.910Z,96548.28
2023-04-18T03:53:09.134Z,96541.41
2023-04-18T03:55:37.503Z,96547.97
2023-04-18T03:58:05.769Z,96552.31
2023-04-18T04:00:35.488Z,96549.66
2023-04-18T04:03:04.001Z,96550.59
2023-04-18T04:05:32.403Z,96550.38
2023-04-18T04:08:00.647Z,96553.00
2023-04-18T04:10:29.054Z,96553.06
2023-04-18T04:12:57.338Z,96552.59
2023-04-18T04:15:25.562Z,96551.31
2023-04-18T04:17:55.232Z,96554.47
2023-04-18T04:20:24.837Z,96551.53
2023-04-18T04:22:53.993Z,96550.69
2023-04-18T04:25:23.930Z,96548.38
2023-04-18T04:27:53.700Z,96550.22
2023-04-18T04:30:22.737Z,96551.69
2023-04-18T04:32:51.121Z,96550.38
2023-04-18T04:35:22.402Z,96554.78
2023-04-18T04:37:51.728Z,96554.94
2023-04-18T04:40:20.106Z,96555.13
2023-04-18T04:42:49.206Z,96552.88
2023-04-18T04:45:17.668Z,96554.16
2023-04-18T04:47:46.000Z,96555.56
2023-04-18T04:50:15.827Z,96560.22
2023-04-18T04:52:45.573Z,96561.28
2023-04-18T04:55:13.978Z,96558.88
2023-04-18T04:57:42.248Z,96566.56
2023-04-18T05:00:13.715Z,96560.88
2023-04-18T05:02:41.998Z,96561.25
2023-04-18T05:05:10.680Z,96570.63
2023-04-18T05:07:38.939Z,96556.91
2023-04-18T05:10:14.379Z,96559.25
2023-04-18T05:12:42.790Z,96565.22
2023-04-18T05:15:12.375Z,96564.56
2023-04-18T05:17:40.722Z,96567.91
2023-04-18T05:20:10.416Z,96556.72
2023-04-18T05:22:38.730Z,96576.34
2023-04-18T05:25:09.442Z,96568.56
2023-04-18T05:27:37.678Z,96575.50
2023-04-18T05:30:07.024Z,96578.84
2023-04-18T05:32:35.327Z,96583.00
2023-04-18T05:35:03.770Z,96584.31
2023-04-18T05:37:32.077Z,96587.69
2023-04-18T05:40:01.071Z,96591.84
2023-04-18T05:42:30.886Z,96585.81
2023-04-18T05:44:59.317Z,96589.25
2023-04-18T05:47:28.632Z,96583.78
2023-04-18T05:49:57.000Z,96582.75
2023-04-18T05:52:26.133Z,96590.66
2023-04-18T05:54:54.431Z,96592.84
2023-04-18T05:57:22.697Z,96590.91
2023-04-18T05:59:52.384Z,96589.06
2023-04-18T06:02:21.160Z,96594.53
2023-04-18T06:04:50.051Z,96593.72
2023-04-18T06:07:18.421Z,96592.53
2023-04-18T06:09:46.758Z,96595.91
2023-04-18T06:12:15.034Z,96604.75
2023-04-18T06:14:43.332Z,96603.72
2023-04-18T06:17:13.991Z,96605.59
2023-04-18T06:19:42.113Z,96609.50
2023-04-18T06:22:10.277Z,96616.75
2023-04-18T06:24:38.556Z,96611.53
2023-04-18T06:27:09.376Z,96615.22
2023-04-18T06:29:43.867Z,96622.03
2023-04-18T06:32:13.462Z,96615.31
2023-04-18T06:34:41.726Z,96619.28
2023-04-18T06:37:09.977Z,96621.50
2023-04-18T06:39:38.263Z,96624.34
2023-04-18T06:42:06.620Z,96621.72
2023-04-18T06:44:36.004Z,96620.50
2023-04-18T06:47:04.362Z,96617.25
2023-04-18T06:49:33.962Z,96600.44
2023-04-18T06:52:02.277Z,96614.50
2023-04-18T06:54:30.592Z,96604.69
2023-04-18T06:56:58.812Z,96614.19
2023-04-18T06:59:27.101Z,96622.03
2023-04-18T07:01:55.390Z,96611.56
2023-04-18T07:04:23.826Z,96611.44
2023-04-18T07:06:54.065Z,96608.84
2023-04-18T07:09:22.766Z,96617.50
2023-04-18T07:11:52.684Z,96610.38
2023-04-18T07:14:23.692Z,96610.22
2023-04-18T07:16:52.002Z,96609.16
2023-04-18T07:19:20.298Z,96606.34
2023-04-18T07:21:48.705Z,96621.84
2023-04-18T07:24:18.331Z,96616.34
2023-04-18T07:26:46.570Z,96624.34
2023-04-18T07:29:14.835Z,96620.06
2023-04-18T07:31:43.065Z,96622.56
2023-04-18T07:34:11.751Z,96630.88
2023-04-18T07:36:40.314Z,96616.19
2023-04-18T07:39:08.592Z,96632.97
2023-04-18T07:41:38.234Z,96621.25
2023-04-18T07:44:06.698Z,96636.59
2023-04-18T07:46:35.091Z,96622.84
2023-04-18T07:49:03.620Z,96628.09
2023-04-18T07:51:32.339Z,96631.06
2023-04-18T07:54:00.705Z,96629.94
2023-04-18T07:56:43.807Z,96628.84
2023-04-18T07:59:13.837Z,96629.03
2023-04-18T08:01:42.269Z,96639.78
2023-04-18T08:04:11.019Z,96632.06
2023-04-18T08:06:39.558Z,96633.75
2023-04-18T08:09:08.217Z,96636.81
2023-04-18T08:11:36.545Z,96638.72
2023-04-18T08:14:04.780Z,96633.66
2023-04-18T08:16:34.442Z,96637.25
2023-04-18T08:19:02.718Z,96639.41
2023-04-18T08:21:31.129Z,96649.19
2023-04-18T08:23:59.715Z,96636.63
2023-04-18T08:26:28.205Z,96637.78
2023-04-18T08:28:56.564Z,96633.88
2023-04-18T08:31:25.020Z,96635.56
2023-04-18T08:33:54.811Z,96629.22
2023-04-18T08:36:24.876Z,96642.38
2023-04-18T08:38:53.306Z,96647.53
2023-04-18T08:41:23.170Z,96643.41
2023-04-18T08:43:51.854Z,96652.31
2023-04-18T08:46:20.230Z,96650.63
2023-04-18T08:48:51.315Z,96659.44
2023-04-18T08:51:21.609Z,96645.66
2023-04-18T08:53:50.616Z,96648.78
2023-04-18T08:56:22.386Z,96650.84
2023-04-18T08:58:50.870Z,96652.91
2023-04-18T09:01:19.159Z,96661.16
2023-04-18T09:03:47.670Z,96654.66
2023-04-18T09:06:19.362Z,96667.34
2023-04-18T09:08:59.134Z,96661.16
2023-04-18T09:11:29.007Z,96656.00
2023-04-18T09:14:10.905Z,96650.84
2023-04-18T09:16:47.215Z,96660.09
2023-04-18T09:19:18.895Z,96659.69
2023-04-18T09:21:48.706Z,96652.03
2023-04-18T09:24:24.115Z,96658.19
2023-04-18T09:26:53.679Z,96653.31
2023-04-18T09:29:23.433Z,96662.72
2023-04-18T09:31:57.329Z,96670.47
2023-04-18T09:34:26.466Z,96667.31
2023-04-18T09:37:08.427Z,96662.72
2023-04-18T09:39:38.836Z,96664.16
2023-04-18T09:42:08.014Z,96661.63
2023-04-18T09:44:36.346Z,96654.63
2023-04-18T09:47:04.636Z,96649.38
2023-04-18T09:49:33.751Z,96665.91
2023-04-18T09:52:04.685Z,96656.56
2023-04-18T09:54:34.383Z,96668.19
2023-04-18T09:57:05.062Z,96660.50
2023-04-18T09:59:43.066Z,96661.47
2023-04-18T10:02:16.448Z,96651.53
2023-04-18T10:04:45.726Z,96657.19
2023-04-18T10:07:14.373Z,96668.19
2023-04-18T10:09:51.847Z,96662.41
2023-04-18T10:12:21.941Z,96652.84
2023-04-18T10:14:54.812Z,96640.78
2023-04-18T10:17:23.180Z,96641.28
2023-04-18T10:20:08.021Z,96641.59
2023-04-18T10:22:36.626Z,96648.09
2023-04-18T10:25:06.222Z,96650.06
2023-04-18T10:28:01.259Z,96649.84
2023-04-18T10:30:55.050Z,96648.78
2023-04-18T10:33:30.822Z,96649.53
2023-04-18T10:36:06.153Z,96644.00
2023-04-18T10:38:35.346Z,96647.63
2023-04-18T10:41:17.258Z,96645.50
2023-04-18T10:44:22.719Z,96644.28
2023-04-18T10:47:22.212Z,96650.69
2023-04-18T10:49:58.313Z,96642.84
2023-04-18T10:52:26.918Z,96643.53
2023-04-18T10:55:02.635Z,96644.22
2023-04-18T10:57:39.167Z,96647.66
2023-04-18T11:00:13.196Z,96634.63
2023-04-18T11:02:49.294Z,96636.56
2023-04-18T11:05:22.692Z,96637.34
2023-04-18T11:07:51.186Z,96626.88
2023-04-18T11:10:20.979Z,96626.63
2023-04-18T11:12:49.573Z,96629.91
2023-04-18T11:15:22.112Z,96618.88
2023-04-18T11:17:58.527Z,96628.97
2023-04-18T11:20:26.933Z,96625.09
2023-04-18T11:22:56.654Z,96619.00
2023-04-18T11:25:27.526Z,96622.44
2023-04-18T11:27:56.196Z,96618.31
2023-04-18T11:30:26.102Z,96617.44
2023-04-18T11:32:55.072Z,96616.75
2023-04-18T11:35:23.497Z,96615.16
2023-04-18T11:37:52.057Z,96625.34
2023-04-18T11:40:20.424Z,96613.34
2023-04-18T11:42:48.680Z,96621.41
2023-04-18T11:45:17.165Z,96618.28
2023-04-18T11:47:47.407Z,96627.81
2023-04-18T11:50:15.749Z,96622.25
2023-04-18T11:52:44.058Z,96631.66
2023-04-18T11:55:17.881Z,96636.56
2023-04-18T11:57:53.935Z,96633.72
2023-04-18T12:00:33.629Z,96641.16
2023-04-18T12:03:13.346Z,96640.53
2023-04-18T12:05:43.279Z,96642.38
2023-04-18T12:08:13.228Z,96649.84
2023-04-18T12:10:47.723Z,96642.78
2023-04-18T12:13:16.266Z,96648.59
2023-04-18T12:15:45.705Z,96647.94
2023-04-18T12:18:16.806Z,96647.31
2023-04-18T12:20:50.383Z,96647.94
2023-04-18T12:23:35.550Z,96643.97
2023-04-18T12:26:04.927Z,96645.28
2023-04-18T12:28:34.301Z,96648.34
2023-04-18T12:31:02.738Z,96644.50
2023-04-18T12:33:32.779Z,96643.81
2023-04-18T12:36:01.065Z,96638.09
2023-04-18T12:38:29.439Z,96629.22
2023-04-18T12:40:57.786Z,96631.81
2023-04-18T12:43:26.615Z,96634.88
2023-04-18T12:45:55.234Z,96631.88
2023-04-18T12:48:23.491Z,96627.22
2023-04-18T12:50:53.228Z,96638.66
2023-04-18T12:53:21.633Z,96630.34
2023-04-18T12:55:50.029Z,96625.09
2023-04-18T12:58:20.597Z,96636.50
2023-04-18T13:00:48.810Z,96633.38
2023-04-18T13:03:17.375Z,96625.19
2023-04-18T13:05:46.097Z,96625.34
2023-04-18T13:08:17.952Z,96626.06
2023-04-18T13:10:47.689Z,96635.41
2023-04-18T13:13:16.260Z,96631.50
2023-04-18T13:15:44.594Z,96641.81
2023-04-18T13:18:12.784Z,96639.31
2023-04-18T13:20:41.108Z,96647.97
2023-04-18T13:23:09.373Z,96641.97
2023-04-18T13:25:39.404Z,96643.97
2023-04-18T13:28:07.722Z,96633.75
2023-04-18T13:30:36.632Z,96635.34
2023-04-18T13:33:05.036Z,96640.91
2023-04-18T13:35:33.359Z,96640.09
2023-04-18T13:38:01.567Z,96633.94
2023-04-18T13:40:29.883Z,96640.28
2023-04-18T13:42:59.491Z,96640.75
2023-04-18T13:45:27.783Z,96645.28
2023-04-18T13:47:56.087Z,96646.69
2023-04-18T13:50:24.507Z,96652.28
2023-04-18T13:52:54.500Z,96646.44
2023-04-18T13:55:22.935Z,96641.16
2023-04-18T13:57:51.318Z,96635.06
2023-04-18T14:00:21.624Z,96645.00
2023-04-18T14:02:50.401Z,96646.31
2023-04-18T14:05:18.877Z,96645.38
2023-04-18T14:07:48.540Z,96647.53
2023-04-18T14:10:16.906Z,96649.66
2023-04-18T14:12:45.270Z,96653.13
2023-04-18T14:15:13.550Z,96654.97
2023-04-18T14:17:45.458Z,96648.78
2023-04-18T14:20:15.692Z,96653.75
2023-04-18T14:22:43.974Z,96653.72
2023-04-18T14:25:12.379Z,96663.63
2023-04-18T14:27:40.733Z,96656.41
2023-04-18T14:30:10.285Z,96656.72
2023-04-18T14:32:38.602Z,96658.16
2023-04-18T14:35:09.459Z,96656.56
2023-04-18T14:37:37.734Z,96656.59
2023-04-18T14:40:08.200Z,96660.50
2023-04-18T14:42:36.476Z,96658.25
2023-04-18T14:45:05.570Z,96655.59
2023-04-18T14:47:34.834Z,96657.59
2023-04-18T14:50:03.261Z,96656.53
2023-04-18T14:52:32.944Z,96658.69
2023-04-18T14:55:01.244Z,96664.47
2023-04-18T14:57:29.512Z,96658.47
2023-04-18T14:59:57.800Z,96664.03
2023-04-18T15:02:26.308Z,96666.72
2023-04-18T15:04:55.085Z,96658.88
2023-04-18T15:07:23.397Z,96660.13
2023-04-18T15:09:53.335Z,96661.66
2023-04-18T15:12:21.555Z,96669.19
2023-04-18T15:14:49.846Z,96666.53
2023-04-18T15:17:18.154Z,96669.63
2023-04-18T15:19:46.416Z,96671.47
2023-04-18T15:22:14.751Z,96670.22
2023-04-18T15:24:43.068Z,96675.59
2023-04-18T15:27:12.892Z,96667.19
2023-04-18T15:29:41.154Z,96674.16
2023-04-18T15:32:10.121Z,96677.19
2023-04-18T15:34:38.416Z,96666.84
2023-04-18T15:37:07.055Z,96669.47
2023-04-18T15:39:35.487Z,96674.88
2023-04-18T15:42:03.825Z,96669.97
2023-04-18T15:44:33.440Z,96672.94
2023-04-18T15:47:01.895Z,96666.38
2023-04-18T15:49:30.281Z,96666.47
2023-04-18T15:51:58.631Z,96668.78
2023-04-18T15:54:27.104Z,96677.69
2023-04-18T15:56:55.567Z,96672.91
2023-04-18T15:59:23.828Z,96672.97
2023-04-18T16:01:53.496Z,96677.00
2023-04-18T16:04:21.899Z,96677.41
2023-04-18T16:06:50.261Z,96688.97
2023-04-18T16:09:18.548Z,96688.78
2023-04-18T16:11:46.831Z,96691.19
2023-04-18T16:14:15.263Z,96690.50
2023-04-18T16:16:43.733Z,96682.22
2023-04-18T16:19:14.312Z,96681.50
2023-04-18T16:21:42.338Z,96687.34
2023-04-18T16:24:10.675Z,96689.19
2023-04-18T16:26:38.894Z,96688.78
2023-04-18T16:29:07.181Z,96689.41
2023-04-18T16:31:35.601Z,96683.63
2023-04-18T16:34:04.179Z,96685.94
2023-04-18T16:36:35.683Z,96689.41
2023-04-18T16:39:04.704Z,96692.94
2023-04-18T16:41:33.051Z,96692.09
2023-04-18T16:44:01.313Z,96697.69
2023-04-18T16:46:32.324Z,96699.72
2023-04-18T16:49:01.577Z,96702.56
2023-04-18T16:51:29.890Z,96694.97
2023-04-18T16:53:59.524Z,96703.09
2023-04-18T16:56:27.787Z,96697.28
2023-04-18T16:58:56.116Z,96692.94
2023-04-18T17:01:24.414Z,96691.44
2023-04-18T17:03:52.923Z,96694.16
2023-04-18T17:06:22.820Z,96693.81
2023-04-18T17:08:53.441Z,96695.94
2023-04-18T17:11:23.231Z,96691.00
2023-04-18T17:13:51.456Z,96701.63
2023-04-18T17:16:19.792Z,96706.56
2023-04-18T17:18:48.077Z,96703.69
2023-04-18T17:21:16.357Z,96714.34
2023-04-18T17:23:44.665Z,96708.44
2023-04-18T17:26:13.005Z,96701.94
2023-04-18T17:28:43.020Z,96703.22
2023-04-18T17:31:11.615Z,96701.19
2023-04-18T17:33:39.970Z,96699.13
2023-04-18T17:36:08.766Z,96700.81
2023-04-18T17:38:37.116Z,96699.16
2023-04-18T17:41:05.811Z,96703.25
2023-04-18T17:43:34.126Z,96700.13
2023-04-18T17:46:04.009Z,96701.56
2023-04-18T17:48:32.337Z,96708.09
2023-04-18T17:51:00.733Z,96699.31
2023-04-18T17:53:31.583Z,96710.66
2023-04-18T17:56:00.628Z,96713.19
2023-04-18T17:58:29.388Z,96711.44
2023-04-18T18:00:57.732Z,96715.63
2023-04-18T18:03:27.693Z,96718.53
2023-04-18T18:05:56.079Z,96711.56
2023-04-18T18:08:24.361Z,96715.63
2023-04-18T18:10:52.671Z,96715.19
2023-04-18T18:15:48.823Z,96717.63
2023-04-18T18:18:17.052Z,96734.03
2023-04-18T18:20:46.695Z,96729.75
2023-04-18T18:23:14.952Z,96739.44
2023-04-18T18:25:43.363Z,96726.31
2023-04-18T18:28:11.793Z,96736.84
2023-04-18T18:30:40.032Z,96744.00
2023-04-18T18:33:08.372Z,96736.50
2023-04-18T18:35:37.040Z,96738.59
2023-04-18T18:38:07.202Z,96735.66
2023-04-18T18:40:35.600Z,96748.88
2023-04-18T18:43:03.872Z,96748.09
2023-04-18T18:45:32.107Z,96758.50
2023-04-18T18:48:00.542Z,96757.53
2023-04-18T18:50:28.826Z,96753.19
2023-04-18T18:52:57.105Z,96758.75
2023-04-18T18:55:26.887Z,96764.72
2023-04-18T18:57:55.356Z,96766.00
2023-04-18T19:00:23.821Z,96762.50
2023-04-18T19:02:52.360Z,96764.28
2023-04-18T19:05:21.179Z,96758.94
2023-04-18T19:07:51.457Z,96761.53
2023-04-18T19:10:19.861Z,96766.16
2023-04-18T19:12:49.748Z,96766.06
2023-04-18T19:15:18.084Z,96767.38
2023-04-18T19:17:46.356Z,96768.78
2023-04-18T19:20:14.673Z,96783.13
2023-04-18T19:22:43.019Z,96775.41
2023-04-18T19:25:11.572Z,96778.69
2023-04-18T19:27:39.871Z,96781.91
2023-04-18T19:30:10.701Z,96777.00
2023-04-18T19:32:39.033Z,96773.63
2023-04-18T19:35:09.878Z,96770.50
2023-04-18T19:37:38.158Z,96776.47
2023-04-18T19:40:07.781Z,96778.53
2023-04-18T19:42:36.034Z,96777.97
2023-04-18T19:45:04.866Z,96775.06
2023-04-18T19:47:34.762Z,96783.75
2023-04-18T19:50:03.117Z,96775.06
2023-04-18T19:52:31.345Z,96781.09
2023-04-18T19:54:59.568Z,96779.16
2023-04-18T19:57:29.023Z,96783.88
2023-04-18T19:59:57.272Z,96779.88
2023-04-18T20:02:25.625Z,96780.44
2023-04-18T20:04:55.401Z,96783.50
2023-04-18T20:07:26.251Z,96789.22
2023-04-18T20:09:54.687Z,96787.97
2023-04-18T20:12:23.450Z,96789.84
2023-04-18T20:14:51.916Z,96788.16
2023-04-18T20:17:20.424Z,96785.22
2023-04-18T20:19:49.735Z,96784.41
2023-04-18T20:22:19.793Z,96788.53
2023-04-18T20:24:48.779Z,96785.03
2023-04-18T20:27:20.356Z,96789.25
2023-04-18T20:29:48.692Z,96789.81
2023-04-18T20:32:17.007Z,96791.19
2023-04-18T20:34:45.759Z,96786.75
2023-04-18T20:37:15.545Z,96794.91
2023-04-18T20:39:45.587Z,96793.00
2023-04-18T20:42:14.767Z,96788.44
2023-04-18T20:44:44.783Z,96786.63
2023-04-18T20:47:15.242Z,96793.63
2023-04-18T20:49:44.092Z,96789.69
2023-04-18T20:52:14.361Z,96794.69
2023-04-18T20:54:42.829Z,96792.28
2023-04-18T20:57:12.427Z,96784.75
2023-04-18T20:59:40.654Z,96785.38
2023-04-18T21:02:09.437Z,96785.84
2023-04-18T21:04:38.058Z,96789.75
2023-04-18T21:07:06.430Z,96792.63
2023-04-18T21:09:36.559Z,96798.59
2023-04-18T21:12:05.834Z,96784.31
2023-04-18T21:14:35.452Z,96792.31
2023-04-18T21:17:03.816Z,96786.84
2023-04-18T21:19:32.034Z,96794.13
2023-04-18T21:22:00.277Z,96796.59
2023-04-18T21:24:28.544Z,96791.06
2023-04-18T21:26:57.730Z,96798.31
2023-04-18T21:29:26.046Z,96800.22
2023-04-18T21:31:55.927Z,96798.69
2023-04-18T21:34:24.256Z,96802.00
2023-04-18T21:36:52.504Z,96796.28
2023-04-18T21:39:20.825Z,96793.78
2023-04-18T21:41:49.090Z,96794.47
2023-04-18T21:44:18.865Z,96789.59
2023-04-18T21:46:47.185Z,96790.09
2023-04-18T21:49:16.869Z,96796.63
2023-04-18T21:51:45.870Z,96791.50
2023-04-18T21:54:14.304Z,96789.28
2023-04-18T21:56:42.910Z,96787.66
2023-04-18T21:59:11.256Z,96790.50
2023-04-18T22:01:39.629Z,96791.31
2023-04-18T22:04:08.430Z,96795.47
2023-04-18T22:06:38.106Z,96785.53
2023-04-18T22:09:06.575Z,96785.78
2023-04-18T22:11:34.906Z,96787.44
2023-04-18T22:14:03.165Z,96782.91
2023-04-18T22:16:33.386Z,96781.25
2023-04-18T22:19:02.549Z,96787.38
2023-04-18T22:21:31.383Z,96781.63
2023-04-18T22:24:01.450Z,96780.53
2023-04-18T22:26:30.199Z,96766.34
2023-04-18T22:28:58.490Z,96769.28
2023-04-18T22:31:26.804Z,96771.13
2023-04-18T22:33:55.217Z,96770.16
2023-04-18T22:36:23.471Z,96765.97
2023-04-18T22:38:51.708Z,96774.16
2023-04-18T22:41:21.275Z,96764.34
2023-04-18T22:43:49.552Z,96772.84
2023-04-18T22:46:17.846Z,96772.16
2023-04-18T22:48:46.237Z,96772.03
2023-04-18T22:51:14.888Z,96780.00
2023-04-18T22:53:43.122Z,96779.34
2023-04-18T22:56:11.461Z,96775.94
2023-04-18T22:58:41.124Z,96784.47
2023-04-18T23:01:09.460Z,96775.47
2023-04-18T23:03:37.969Z,96774.94
2023-04-18T23:06:08.132Z,96783.81
2023-04-18T23:08:36.374Z,96778.22
2023-04-18T23:11:04.658Z,96767.38
2023-04-18T23:13:32.888Z,96779.81
2023-04-18T23:16:02.528Z,96778.25
2023-04-18T23:18:31.536Z,96776.66
2023-04-18T23:23:28.987Z,96767.69
2023-04-18T23:25:57.361Z,96773.63
2023-04-18T23:28:25.678Z,96770.75
2023-04-18T23:30:53.937Z,96767.47
2023-04-18T23:33:23.591Z,96769.94
2023-04-18T23:35:51.863Z,96763.72
2023-04-18T23:38:20.305Z,96766.66
2023-04-18T23:40:48.550Z,96764.53
2023-04-18T23:43:16.812Z,96768.88
2023-04-18T23:45:45.355Z,96761.00
2023-04-18T23:48:13.854Z,96755.00
2023-04-18T23:50:48.072Z,96753.53
2023-04-18T23:53:17.386Z,96750.75
2023-04-18T23:55:46.152Z,96750.97
2023-04-18T23:58:14.863Z,96742.63
